createdAt,value
2022-08-31T00:00:00.786Z,18
2022-08-31T00:01:00.355Z,18.1
2022-08-31T00:02:00.019Z,18
2022-08-31T00:02:59.635Z,18.1
2022-08-31T00:04:01.182Z,18
2022-08-31T00:05:01.216Z,18
2022-08-31T00:06:01.041Z,18
2022-08-31T00:07:01.234Z,18
2022-08-31T00:08:01.057Z,18
2022-08-31T00:09:01.068Z,18
2022-08-31T00:10:01.205Z,18
2022-08-31T00:11:01.619Z,17.9
2022-08-31T00:12:01.304Z,17.9
2022-08-31T00:13:02.871Z,17.9
2022-08-31T00:14:01.414Z,17.9
2022-08-31T00:15:01.096Z,17.8
2022-08-31T00:16:04.308Z,17.8
2022-08-31T00:17:01.407Z,17.8
2022-08-31T00:18:01.035Z,17.8
2022-08-31T00:19:01.424Z,17.8
2022-08-31T00:20:01.153Z,17.8
2022-08-31T00:21:07.726Z,17.8
2022-08-31T00:22:01.975Z,17.7
2022-08-31T00:23:01.355Z,17.7
2022-08-31T00:24:01.069Z,17.7
2022-08-31T00:25:01.062Z,17.6
2022-08-31T00:26:09.762Z,17.6
2022-08-31T00:27:02.392Z,17.6
2022-08-31T00:28:02.016Z,17.6
2022-08-31T00:29:01.549Z,17.6
2022-08-31T00:30:02.220Z,17.6
2022-08-31T00:31:13.057Z,17.6
2022-08-31T00:32:00.929Z,17.6
2022-08-31T00:33:01.134Z,17.6
2022-08-31T00:34:01.439Z,17.6
2022-08-31T00:35:01.123Z,17.6
2022-08-31T00:36:15.524Z,17.6
2022-08-31T00:37:01.536Z,17.6
2022-08-31T00:38:02.702Z,17.6
2022-08-31T00:39:01.450Z,17.6
2022-08-31T00:40:01.188Z,17.6
2022-08-31T00:41:01.064Z,17.6
2022-08-31T00:42:01.073Z,17.6
2022-08-31T00:43:01.088Z,17.5
2022-08-31T00:44:01.369Z,17.5
2022-08-31T00:45:01.091Z,17.5
2022-08-31T00:46:01.159Z,17.5
2022-08-31T00:47:01.853Z,17.5
2022-08-31T00:48:00.901Z,17.5
2022-08-31T00:49:00.471Z,17.6
2022-08-31T00:50:00.057Z,17.6
2022-08-31T00:50:59.788Z,17.6
2022-08-31T00:52:01.578Z,17.6
2022-08-31T00:53:01.324Z,17.6
2022-08-31T00:54:01.974Z,17.6
2022-08-31T00:55:01.060Z,17.6
2022-08-31T00:56:01.043Z,17.6
2022-08-31T00:57:02.112Z,17.6
2022-08-31T00:58:01.712Z,17.6
2022-08-31T00:59:00.769Z,17.6
2022-08-31T01:00:00.326Z,17.6
2022-08-31T01:01:00.012Z,17.6
2022-08-31T01:01:59.720Z,17.5
2022-08-31T01:03:01.798Z,17.5
2022-08-31T01:04:01.410Z,17.5
2022-08-31T01:05:02.553Z,17.5
2022-08-31T01:06:02.563Z,17.5
2022-08-31T01:07:01.143Z,17.5
2022-08-31T01:08:01.148Z,17.5
2022-08-31T01:09:01.035Z,17.5
2022-08-31T01:10:01.063Z,17.4
2022-08-31T01:11:01.060Z,17.3
2022-08-31T01:12:01.778Z,17.3
2022-08-31T01:13:00.769Z,17.4
2022-08-31T01:14:01.656Z,17.3
2022-08-31T01:15:02.092Z,17.3
2022-08-31T01:16:01.544Z,17.3
2022-08-31T01:17:01.102Z,17.3
2022-08-31T01:18:01.113Z,17.3
2022-08-31T01:19:01.125Z,17.3
2022-08-31T01:20:01.126Z,17.3
2022-08-31T01:21:01.124Z,17.2
2022-08-31T01:22:01.191Z,17.3
2022-08-31T01:23:01.542Z,17.3
2022-08-31T01:24:01.048Z,17.2
2022-08-31T01:25:01.535Z,17.2
2022-08-31T01:26:01.046Z,17.3
2022-08-31T01:27:01.097Z,17.2
2022-08-31T01:28:01.453Z,17.2
2022-08-31T01:29:01.300Z,17.2
2022-08-31T01:30:01.124Z,17.2
2022-08-31T01:31:01.107Z,17.2
2022-08-31T01:32:01.644Z,17.2
2022-08-31T01:33:01.113Z,17.1
2022-08-31T01:34:01.037Z,17.1
2022-08-31T01:35:01.038Z,17.1
2022-08-31T01:36:01.124Z,17.1
2022-08-31T01:37:01.737Z,17.1
2022-08-31T01:38:01.159Z,17.1
2022-08-31T01:39:01.159Z,17.1
2022-08-31T01:40:01.216Z,17.1
2022-08-31T01:41:01.862Z,17.1
2022-08-31T01:42:01.054Z,17.1
2022-08-31T01:43:01.088Z,17.1
2022-08-31T01:44:01.039Z,17.1
2022-08-31T01:45:01.077Z,17.1
2022-08-31T01:46:01.088Z,17.1
2022-08-31T01:47:01.161Z,17.1
2022-08-31T01:48:01.109Z,17
2022-08-31T01:49:01.102Z,17
2022-08-31T01:50:01.434Z,17
2022-08-31T01:51:01.495Z,17
2022-08-31T01:52:02.948Z,17
2022-08-31T01:53:02.575Z,17
2022-08-31T01:54:01.146Z,17
2022-08-31T01:55:01.035Z,17
2022-08-31T01:56:01.046Z,17
2022-08-31T01:57:00.751Z,17
2022-08-31T01:58:00.445Z,16.9
2022-08-31T01:59:00.033Z,16.9
2022-08-31T01:59:59.631Z,16.9
2022-08-31T02:01:01.551Z,16.8
2022-08-31T02:02:03.718Z,16.8
2022-08-31T02:03:01.790Z,16.8
2022-08-31T02:04:01.396Z,16.8
2022-08-31T02:05:02.027Z,16.8
2022-08-31T02:07:05.605Z,16.8
2022-08-31T02:08:01.330Z,16.8
2022-08-31T02:09:02.215Z,16.8
2022-08-31T02:10:01.139Z,16.8
2022-08-31T02:11:01.039Z,16.8
2022-08-31T02:12:09.306Z,16.8
2022-08-31T02:13:01.055Z,16.8
2022-08-31T02:14:01.063Z,16.8
2022-08-31T02:15:01.322Z,16.8
2022-08-31T02:16:02.044Z,16.8
2022-08-31T02:17:11.028Z,16.8
2022-08-31T02:18:01.420Z,16.8
2022-08-31T02:19:01.096Z,16.8
2022-08-31T02:20:01.202Z,16.8
2022-08-31T02:21:01.411Z,16.8
2022-08-31T02:22:15.061Z,16.8
2022-08-31T02:23:02.511Z,16.8
2022-08-31T02:24:01.167Z,16.8
2022-08-31T02:25:01.142Z,16.8
2022-08-31T02:26:01.343Z,16.8
2022-08-31T02:27:16.877Z,16.8
2022-08-31T02:28:02.157Z,16.8
2022-08-31T02:29:01.069Z,16.8
2022-08-31T02:30:01.035Z,16.8
2022-08-31T02:31:01.127Z,16.8
2022-08-31T02:32:01.098Z,16.8
2022-08-31T02:33:01.092Z,16.8
2022-08-31T02:34:01.152Z,16.8
2022-08-31T02:35:01.501Z,16.8
2022-08-31T02:36:01.216Z,16.8
2022-08-31T02:37:01.141Z,16.8
2022-08-31T02:38:01.925Z,16.8
2022-08-31T02:39:01.632Z,16.8
2022-08-31T02:40:01.214Z,16.8
2022-08-31T02:41:01.136Z,16.8
2022-08-31T02:42:01.060Z,16.8
2022-08-31T02:43:01.114Z,16.8
2022-08-31T02:44:01.440Z,16.7
2022-08-31T02:45:01.064Z,16.7
2022-08-31T02:46:01.106Z,16.7
2022-08-31T02:47:01.090Z,16.7
2022-08-31T02:48:01.101Z,16.7
2022-08-31T02:49:01.041Z,16.7
2022-08-31T02:50:01.096Z,16.7
2022-08-31T02:51:01.104Z,16.6
2022-08-31T02:52:01.060Z,16.7
2022-08-31T02:53:01.423Z,16.6
2022-08-31T02:54:02.175Z,16.6
2022-08-31T02:55:03.063Z,16.6
2022-08-31T02:56:01.138Z,16.6
2022-08-31T02:57:01.774Z,16.6
2022-08-31T02:58:01.750Z,16.6
2022-08-31T02:59:01.350Z,16.5
2022-08-31T03:00:01.979Z,16.5
2022-08-31T03:01:02.536Z,16.5
2022-08-31T03:02:01.649Z,16.5
2022-08-31T03:03:01.141Z,16.4
2022-08-31T03:04:01.078Z,16.4
2022-08-31T03:05:01.047Z,16.4
2022-08-31T03:06:01.115Z,16.3
2022-08-31T03:07:01.109Z,16.3
2022-08-31T03:08:01.109Z,16.3
2022-08-31T03:09:01.509Z,16.3
2022-08-31T03:10:01.139Z,16.3
2022-08-31T03:11:01.167Z,16.2
2022-08-31T03:12:01.153Z,16.2
2022-08-31T03:13:01.053Z,16.1
2022-08-31T03:14:01.267Z,16.1
2022-08-31T03:15:01.287Z,16.1
2022-08-31T03:16:01.384Z,16.1
2022-08-31T03:17:01.318Z,16.1
2022-08-31T03:18:06.640Z,16.1
2022-08-31T03:19:02.417Z,16.1
2022-08-31T03:20:01.223Z,16.1
2022-08-31T03:21:01.104Z,16.1
2022-08-31T03:22:01.123Z,16.1
2022-08-31T03:23:01.219Z,16.1
2022-08-31T03:24:01.509Z,16.1
2022-08-31T03:25:01.235Z,16.1
2022-08-31T03:26:01.137Z,16.1
2022-08-31T03:27:01.141Z,16.1
2022-08-31T03:28:01.305Z,16.1
2022-08-31T03:29:01.050Z,16.1
2022-08-31T03:30:01.087Z,16.1
2022-08-31T03:31:01.109Z,16
2022-08-31T03:32:01.072Z,16
2022-08-31T03:33:02.472Z,16
2022-08-31T03:34:01.079Z,16
2022-08-31T03:35:01.044Z,16
2022-08-31T03:36:01.103Z,16
2022-08-31T03:37:01.109Z,16
2022-08-31T03:38:01.059Z,16
2022-08-31T03:39:01.112Z,15.9
2022-08-31T03:40:01.112Z,15.9
2022-08-31T03:41:01.052Z,15.9
2022-08-31T03:42:01.356Z,15.9
2022-08-31T03:43:02.169Z,15.9
2022-08-31T03:44:01.960Z,15.9
2022-08-31T03:45:01.770Z,16
2022-08-31T03:46:01.073Z,16
2022-08-31T03:47:01.053Z,16
2022-08-31T03:48:06.912Z,15.9
2022-08-31T03:49:01.073Z,15.9
2022-08-31T03:50:01.092Z,15.8
2022-08-31T03:51:01.475Z,15.9
2022-08-31T03:52:02.128Z,15.8
2022-08-31T03:53:07.930Z,15.9
2022-08-31T03:54:01.778Z,15.8
2022-08-31T03:55:01.114Z,15.8
2022-08-31T03:56:00.823Z,15.8
2022-08-31T03:57:00.583Z,15.8
2022-08-31T03:58:09.410Z,15.8
2022-08-31T03:59:01.136Z,15.8
2022-08-31T04:00:01.046Z,15.7
2022-08-31T04:01:01.060Z,15.7
2022-08-31T04:02:01.083Z,15.7
2022-08-31T04:03:11.844Z,15.7
2022-08-31T04:04:01.075Z,15.7
2022-08-31T04:05:01.032Z,15.7
2022-08-31T04:06:01.097Z,15.7
2022-08-31T04:07:01.095Z,15.6
2022-08-31T04:08:14.870Z,15.6
2022-08-31T04:09:01.108Z,15.6
2022-08-31T04:10:01.035Z,15.6
2022-08-31T04:11:01.229Z,15.6
2022-08-31T04:12:01.219Z,15.6
2022-08-31T04:13:16.776Z,15.5
2022-08-31T04:14:01.150Z,15.5
2022-08-31T04:15:01.908Z,15.4
2022-08-31T04:16:00.987Z,15.5
2022-08-31T04:17:01.062Z,15.4
2022-08-31T04:18:01.302Z,15.5
2022-08-31T04:19:01.092Z,15.4
2022-08-31T04:20:02.002Z,15.4
2022-08-31T04:21:02.548Z,15.3
2022-08-31T04:22:01.288Z,15.4
2022-08-31T04:23:01.117Z,15.4
2022-08-31T04:24:01.499Z,15.4
2022-08-31T04:25:01.111Z,15.4
2022-08-31T04:26:01.140Z,15.5
2022-08-31T04:27:01.136Z,15.5
2022-08-31T04:28:01.124Z,15.5
2022-08-31T04:29:01.327Z,15.5
2022-08-31T04:30:01.540Z,15.5
2022-08-31T04:31:01.234Z,15.5
2022-08-31T04:32:00.755Z,15.5
2022-08-31T04:33:00.443Z,15.5
2022-08-31T04:34:00.146Z,15.5
2022-08-31T04:34:59.835Z,15.5
2022-08-31T04:36:01.493Z,15.5
2022-08-31T04:37:01.270Z,15.5
2022-08-31T04:38:02.197Z,15.5
2022-08-31T04:39:01.395Z,15.5
2022-08-31T04:40:01.378Z,15.5
2022-08-31T04:41:01.508Z,15.4
2022-08-31T04:42:01.146Z,15.4
2022-08-31T04:43:01.437Z,15.4
2022-08-31T04:44:01.128Z,15.4
2022-08-31T04:45:01.037Z,15.5
2022-08-31T04:46:01.280Z,15.5
2022-08-31T04:47:01.975Z,15.5
2022-08-31T04:48:01.055Z,15.5
2022-08-31T04:49:01.555Z,15.4
2022-08-31T04:50:01.073Z,15.4
2022-08-31T04:51:01.145Z,15.4
2022-08-31T04:52:03.181Z,15.4
2022-08-31T04:53:03.303Z,15.3
2022-08-31T04:54:01.852Z,15.4
2022-08-31T04:55:01.041Z,15.4
2022-08-31T04:56:00.702Z,15.5
2022-08-31T04:57:00.415Z,15.5
2022-08-31T04:58:00.013Z,15.6
2022-08-31T04:58:59.579Z,15.8
2022-08-31T05:00:01.663Z,16
2022-08-31T05:01:01.610Z,16.1
2022-08-31T05:02:01.166Z,16.3
2022-08-31T05:03:01.164Z,16.4
2022-08-31T05:04:01.072Z,16.6
2022-08-31T05:05:01.086Z,16.8
2022-08-31T05:06:01.036Z,16.8
2022-08-31T05:07:01.035Z,16.8
2022-08-31T05:08:01.107Z,16.8
2022-08-31T05:09:01.037Z,16.6
2022-08-31T05:10:01.041Z,16.7
2022-08-31T05:11:01.045Z,16.7
2022-08-31T05:12:01.240Z,16.7
2022-08-31T05:13:01.041Z,16.6
2022-08-31T05:14:01.035Z,16.4
2022-08-31T05:15:01.029Z,16.3
2022-08-31T05:16:01.612Z,16.1
2022-08-31T05:17:01.519Z,16
2022-08-31T05:18:01.424Z,15.9
2022-08-31T05:19:01.033Z,15.8
2022-08-31T05:20:01.033Z,16
2022-08-31T05:21:01.077Z,16
2022-08-31T05:22:01.073Z,16.1
2022-08-31T05:23:01.071Z,16.2
2022-08-31T05:24:01.416Z,16.3
2022-08-31T05:25:01.412Z,16.3
2022-08-31T05:26:01.103Z,16.2
2022-08-31T05:27:01.109Z,16.2
2022-08-31T05:28:01.046Z,16.1
2022-08-31T05:29:01.049Z,16.1
2022-08-31T05:30:01.125Z,16
2022-08-31T05:31:01.199Z,15.9
2022-08-31T05:32:01.137Z,15.9
2022-08-31T05:33:01.056Z,15.9
2022-08-31T05:34:01.319Z,15.9
2022-08-31T05:35:01.038Z,15.8
2022-08-31T05:36:00.717Z,15.8
2022-08-31T05:37:00.455Z,15.8
2022-08-31T05:38:00.041Z,15.8
2022-08-31T05:39:04.581Z,15.8
2022-08-31T05:40:08.383Z,15.7
2022-08-31T05:41:01.165Z,15.7
2022-08-31T05:42:01.510Z,15.7
2022-08-31T05:43:01.274Z,15.6
2022-08-31T05:44:08.199Z,15.6
2022-08-31T05:45:01.266Z,15.6
2022-08-31T05:46:01.182Z,15.5
2022-08-31T05:47:03.858Z,15.5
2022-08-31T05:48:01.152Z,15.5
2022-08-31T05:49:11.772Z,15.5
2022-08-31T05:50:01.088Z,15.5
2022-08-31T05:51:01.066Z,15.5
2022-08-31T05:52:01.077Z,15.5
2022-08-31T05:53:01.074Z,15.5
2022-08-31T05:54:13.961Z,15.5
2022-08-31T05:55:01.085Z,15.5
2022-08-31T05:56:01.208Z,15.5
2022-08-31T05:57:01.656Z,15.5
2022-08-31T05:58:01.498Z,15.6
2022-08-31T05:59:17.192Z,15.7
2022-08-31T06:00:01.132Z,15.7
2022-08-31T06:01:01.136Z,15.8
2022-08-31T06:02:01.268Z,15.8
2022-08-31T06:03:01.136Z,15.8
2022-08-31T06:04:01.036Z,15.8
2022-08-31T06:05:01.081Z,15.8
2022-08-31T06:06:01.059Z,15.9
2022-08-31T06:07:01.243Z,15.9
2022-08-31T06:08:01.334Z,16
2022-08-31T06:09:04.039Z,16
2022-08-31T06:10:01.044Z,16
2022-08-31T06:11:01.102Z,16
2022-08-31T06:12:01.149Z,16
2022-08-31T06:13:01.820Z,16
2022-08-31T06:14:01.110Z,15.9
2022-08-31T06:15:00.907Z,15.8
2022-08-31T06:16:01.463Z,15.8
2022-08-31T06:17:02.772Z,15.8
2022-08-31T06:18:01.130Z,15.8
2022-08-31T06:19:01.139Z,15.8
2022-08-31T06:20:01.147Z,15.9
2022-08-31T06:21:01.055Z,15.9
2022-08-31T06:22:01.063Z,16
2022-08-31T06:23:01.077Z,16
2022-08-31T06:24:01.083Z,16
2022-08-31T06:25:01.467Z,16
2022-08-31T06:26:01.207Z,16.1
2022-08-31T06:27:01.094Z,16.1
2022-08-31T06:28:01.106Z,16.1
2022-08-31T06:29:01.043Z,16.1
2022-08-31T06:30:01.108Z,16.1
2022-08-31T06:31:01.196Z,16.1
2022-08-31T06:32:01.172Z,16.1
2022-08-31T06:33:01.138Z,16.1
2022-08-31T06:34:01.139Z,16.1
2022-08-31T06:35:01.147Z,16.1
2022-08-31T06:36:01.199Z,16.1
2022-08-31T06:37:01.992Z,16.1
2022-08-31T06:38:01.763Z,16.1
2022-08-31T06:39:00.657Z,16.1
2022-08-31T06:40:00.388Z,16.1
2022-08-31T06:41:00.341Z,16.1
2022-08-31T06:41:59.963Z,16.2
2022-08-31T06:42:59.549Z,16.3
2022-08-31T06:44:01.109Z,16.3
2022-08-31T06:45:01.032Z,16.3
2022-08-31T06:46:01.198Z,16.4
2022-08-31T06:47:01.125Z,16.5
2022-08-31T06:48:01.127Z,16.5
2022-08-31T06:49:01.133Z,16.5
2022-08-31T06:50:01.249Z,16.5
2022-08-31T06:51:02.142Z,16.5
2022-08-31T06:52:01.719Z,16.5
2022-08-31T06:53:01.053Z,16.5
2022-08-31T06:54:11.478Z,16.6
2022-08-31T06:55:00.646Z,16.6
2022-08-31T06:56:00.220Z,16.7
2022-08-31T06:56:59.860Z,16.7
2022-08-31T06:57:59.445Z,16.8
2022-08-31T06:59:02.137Z,16.8
2022-08-31T07:00:02.129Z,16.8
2022-08-31T07:01:01.187Z,16.8
2022-08-31T07:02:01.330Z,16.8
2022-08-31T07:03:01.191Z,16.8
2022-08-31T07:04:01.138Z,16.8
2022-08-31T07:05:01.379Z,16.8
2022-08-31T07:06:01.517Z,16.8
2022-08-31T07:07:01.048Z,16.9
2022-08-31T07:08:01.047Z,17
2022-08-31T07:09:01.057Z,17
2022-08-31T07:10:01.080Z,17
2022-08-31T07:11:01.084Z,17.1
2022-08-31T07:12:00.775Z,17.1
2022-08-31T07:13:00.463Z,17.1
2022-08-31T07:14:00.210Z,17.1
2022-08-31T07:15:03.476Z,17.1
2022-08-31T07:16:01.161Z,17.1
2022-08-31T07:17:00.802Z,17
2022-08-31T07:18:01.124Z,17
2022-08-31T07:19:00.654Z,17
2022-08-31T07:20:06.606Z,17.1
2022-08-31T07:21:01.238Z,17.1
2022-08-31T07:22:01.062Z,17.1
2022-08-31T07:23:01.073Z,17.1
2022-08-31T07:24:01.065Z,17.1
2022-08-31T07:25:09.282Z,17.2
2022-08-31T07:26:01.777Z,17.3
2022-08-31T07:27:01.877Z,17.3
2022-08-31T07:28:02.527Z,17.3
2022-08-31T07:29:01.448Z,17.3
2022-08-31T07:30:12.457Z,17.3
2022-08-31T07:31:01.234Z,17.3
2022-08-31T07:32:01.916Z,17.3
2022-08-31T07:33:00.497Z,17.3
2022-08-31T07:34:00.091Z,17.4
2022-08-31T07:35:13.729Z,17.5
2022-08-31T07:36:01.166Z,17.5
2022-08-31T07:37:01.323Z,17.5
2022-08-31T07:38:01.326Z,17.6
2022-08-31T07:39:01.154Z,17.6
2022-08-31T07:40:06.224Z,17.7
2022-08-31T07:41:01.102Z,17.7
2022-08-31T07:42:01.089Z,17.7
2022-08-31T07:43:01.090Z,17.8
2022-08-31T07:44:01.097Z,17.8
2022-08-31T07:45:01.734Z,17.8
2022-08-31T07:46:01.487Z,17.9
2022-08-31T07:47:01.493Z,18
2022-08-31T07:48:01.227Z,17.9
2022-08-31T07:49:01.041Z,17.9
2022-08-31T07:50:01.047Z,17.8
2022-08-31T07:51:01.147Z,17.9
2022-08-31T07:52:01.141Z,17.9
2022-08-31T07:53:01.143Z,18
2022-08-31T07:54:01.049Z,18
2022-08-31T07:55:01.052Z,18
2022-08-31T07:56:01.484Z,18
2022-08-31T07:57:00.749Z,18
2022-08-31T07:58:00.347Z,18
2022-08-31T07:58:59.940Z,18
2022-08-31T07:59:59.536Z,18
2022-08-31T08:01:01.795Z,18
2022-08-31T08:02:02.205Z,18
2022-08-31T08:03:01.278Z,18.1
2022-08-31T08:04:01.121Z,18.1
2022-08-31T08:05:01.122Z,18.1
2022-08-31T08:06:01.628Z,18.1
2022-08-31T08:07:01.646Z,18.1
2022-08-31T08:08:01.786Z,18.1
2022-08-31T08:09:21.941Z,18.2
2022-08-31T08:10:01.804Z,18.3
2022-08-31T08:11:01.066Z,18.3
2022-08-31T08:12:01.439Z,18.4
2022-08-31T08:13:04.769Z,18.5
2022-08-31T08:14:05.255Z,18.5
2022-08-31T08:15:02.199Z,18.5
2022-08-31T08:16:01.181Z,18.6
2022-08-31T08:17:02.521Z,18.6
2022-08-31T08:18:01.119Z,18.6
2022-08-31T08:19:01.178Z,18.6
2022-08-31T08:20:01.120Z,18.6
2022-08-31T08:21:01.517Z,18.6
2022-08-31T08:22:01.513Z,18.5
2022-08-31T08:23:01.250Z,18.5
2022-08-31T08:24:01.141Z,18.5
2022-08-31T08:25:01.044Z,18.5
2022-08-31T08:26:01.096Z,18.4
2022-08-31T08:27:01.055Z,18.5
2022-08-31T08:28:05.854Z,18.5
2022-08-31T08:29:01.783Z,18.5
2022-08-31T08:30:01.343Z,18.5
2022-08-31T08:31:02.360Z,18.5
2022-08-31T08:32:01.197Z,18.5
2022-08-31T08:33:01.238Z,18.5
2022-08-31T08:34:02.022Z,18.5
2022-08-31T08:35:01.079Z,18.5
2022-08-31T08:36:01.153Z,18.5
2022-08-31T08:37:00.812Z,18.5
2022-08-31T08:38:04.379Z,18.5
2022-08-31T08:39:01.441Z,18.5
2022-08-31T08:40:01.111Z,18.5
2022-08-31T08:41:01.049Z,18.6
2022-08-31T08:42:01.057Z,18.6
2022-08-31T08:43:01.074Z,18.6
2022-08-31T08:44:01.068Z,18.7
2022-08-31T08:45:01.074Z,18.8
2022-08-31T08:46:10.679Z,18.8
2022-08-31T08:47:01.111Z,18.8
2022-08-31T08:48:01.137Z,18.8
2022-08-31T08:49:01.491Z,18.8
2022-08-31T08:50:02.521Z,18.8
2022-08-31T08:51:00.700Z,18.8
2022-08-31T08:52:00.411Z,18.8
2022-08-31T08:53:00.164Z,18.8
2022-08-31T08:53:59.903Z,18.8
2022-08-31T08:54:59.489Z,18.8
2022-08-31T08:56:23.130Z,18.9
2022-08-31T08:57:01.401Z,18.9
2022-08-31T08:58:01.381Z,19
2022-08-31T08:59:02.279Z,19
2022-08-31T09:00:01.992Z,19.1
2022-08-31T09:01:05.454Z,19.1
2022-08-31T09:02:01.408Z,19.1
2022-08-31T09:03:02.298Z,19.1
2022-08-31T09:04:01.105Z,19.1
2022-08-31T09:05:01.033Z,19.1
2022-08-31T09:06:08.626Z,19.1
2022-08-31T09:07:01.184Z,19
2022-08-31T09:08:01.120Z,19
2022-08-31T09:09:01.138Z,19
2022-08-31T09:10:01.151Z,19
2022-08-31T09:11:11.298Z,19
2022-08-31T09:12:02.059Z,19
2022-08-31T09:13:03.930Z,19
2022-08-31T09:14:01.966Z,19
2022-08-31T09:15:01.063Z,19
2022-08-31T09:16:14.476Z,19
2022-08-31T09:17:01.382Z,19
2022-08-31T09:18:02.099Z,19
2022-08-31T09:19:02.023Z,19
2022-08-31T09:20:01.446Z,19
2022-08-31T09:21:01.162Z,19
2022-08-31T09:22:01.121Z,19
2022-08-31T09:23:01.128Z,19
2022-08-31T09:24:01.790Z,19
2022-08-31T09:25:01.136Z,19
2022-08-31T09:26:04.954Z,19
2022-08-31T09:27:02.134Z,19
2022-08-31T09:28:02.375Z,19.1
2022-08-31T09:29:01.456Z,19.1
2022-08-31T09:30:01.492Z,19.2
2022-08-31T09:31:01.575Z,19.3
2022-08-31T09:32:05.869Z,19.3
2022-08-31T09:33:02.102Z,19.3
2022-08-31T09:34:01.118Z,19.4
2022-08-31T09:35:01.122Z,19.5
2022-08-31T09:36:01.243Z,19.5
2022-08-31T09:37:00.900Z,19.6
2022-08-31T09:38:01.144Z,19.6
2022-08-31T09:39:01.521Z,19.6
2022-08-31T09:40:06.796Z,19.6
2022-08-31T09:41:02.229Z,19.6
2022-08-31T09:42:01.038Z,19.6
2022-08-31T09:43:01.236Z,19.6
2022-08-31T09:44:01.065Z,19.6
2022-08-31T09:45:01.069Z,19.6
2022-08-31T09:46:01.098Z,19.6
2022-08-31T09:47:01.459Z,19.7
2022-08-31T09:48:01.511Z,19.8
2022-08-31T09:49:02.253Z,19.8
2022-08-31T09:50:01.096Z,19.9
2022-08-31T09:51:01.149Z,20
2022-08-31T09:52:01.268Z,20
2022-08-31T09:53:01.124Z,20
2022-08-31T09:54:01.118Z,20
2022-08-31T09:55:01.121Z,20
2022-08-31T09:56:01.144Z,20
2022-08-31T09:57:01.611Z,20
2022-08-31T09:58:02.362Z,20
2022-08-31T09:59:01.349Z,20
2022-08-31T10:00:01.978Z,20.1
2022-08-31T10:01:01.793Z,20.1
2022-08-31T10:02:01.274Z,20.1
2022-08-31T10:03:06.030Z,20
2022-08-31T10:04:02.123Z,20
2022-08-31T10:05:01.403Z,20
2022-08-31T10:06:01.108Z,20.1
2022-08-31T10:07:01.412Z,20.1
2022-08-31T10:08:01.124Z,20.3
2022-08-31T10:09:01.125Z,20.3
2022-08-31T10:10:01.123Z,20.4
2022-08-31T10:11:01.137Z,20.5
2022-08-31T10:12:01.143Z,20.5
2022-08-31T10:13:01.446Z,20.5
2022-08-31T10:14:01.251Z,20.5
2022-08-31T10:15:01.261Z,20.5
2022-08-31T10:16:01.329Z,20.5
2022-08-31T10:17:02.098Z,20.5
2022-08-31T10:18:01.741Z,20.6
2022-08-31T10:19:01.081Z,20.6
2022-08-31T10:20:01.117Z,20.6
2022-08-31T10:21:01.088Z,20.6
2022-08-31T10:22:01.104Z,20.6
2022-08-31T10:23:01.047Z,20.5
2022-08-31T10:24:01.111Z,20.5
2022-08-31T10:25:01.352Z,20.5
2022-08-31T10:26:01.037Z,20.5
2022-08-31T10:27:00.731Z,20.4
2022-08-31T10:28:00.408Z,20.4
2022-08-31T10:29:00.018Z,20.3
2022-08-31T10:29:59.615Z,20.3
2022-08-31T10:31:01.854Z,20.3
2022-08-31T10:32:01.070Z,20.2
2022-08-31T10:33:01.073Z,20.2
2022-08-31T10:34:01.073Z,20.2
2022-08-31T10:35:01.098Z,20.2
2022-08-31T10:36:01.090Z,20.1
2022-08-31T10:37:00.784Z,20.1
2022-08-31T10:38:00.381Z,20.1
2022-08-31T10:38:59.970Z,20.1
2022-08-31T10:39:59.764Z,20.2
2022-08-31T10:41:01.418Z,20.1
2022-08-31T10:42:02.569Z,20.1
2022-08-31T10:43:02.055Z,20.1
2022-08-31T10:44:01.136Z,20.1
2022-08-31T10:45:01.045Z,20.1
2022-08-31T10:46:01.114Z,20.1
2022-08-31T10:47:01.225Z,20.1
2022-08-31T10:48:01.061Z,20.1
2022-08-31T10:49:01.088Z,20.1
2022-08-31T10:50:01.096Z,20.1
2022-08-31T10:51:01.086Z,20.2
2022-08-31T10:52:05.481Z,20.3
2022-08-31T10:53:02.791Z,20.3
2022-08-31T10:54:01.529Z,20.4
2022-08-31T10:55:01.139Z,20.5
2022-08-31T10:56:01.118Z,20.5
2022-08-31T10:57:08.544Z,20.5
2022-08-31T10:58:01.130Z,20.6
2022-08-31T10:59:01.215Z,20.6
2022-08-31T11:00:01.050Z,20.6
2022-08-31T11:01:01.080Z,20.6
2022-08-31T11:02:11.260Z,20.6
2022-08-31T11:03:01.458Z,20.6
2022-08-31T11:04:01.199Z,20.6
2022-08-31T11:05:01.565Z,20.5
2022-08-31T11:06:01.754Z,20.5
2022-08-31T11:07:14.191Z,20.5
2022-08-31T11:08:01.793Z,20.5
2022-08-31T11:09:01.140Z,20.4
2022-08-31T11:10:01.224Z,20.4
2022-08-31T11:11:01.215Z,20.3
2022-08-31T11:12:17.057Z,20.3
2022-08-31T11:13:01.169Z,20.3
2022-08-31T11:14:01.158Z,20.3
2022-08-31T11:15:01.163Z,20.3
2022-08-31T11:16:01.104Z,20.3
2022-08-31T11:17:01.041Z,20.3
2022-08-31T11:18:01.324Z,20.3
2022-08-31T11:19:04.987Z,20.4
2022-08-31T11:20:01.404Z,20.3
2022-08-31T11:21:01.392Z,20.3
2022-08-31T11:22:01.406Z,20.3
2022-08-31T11:23:01.563Z,20.3
2022-08-31T11:24:03.017Z,20.3
2022-08-31T11:25:01.129Z,20.3
2022-08-31T11:26:01.114Z,20.3
2022-08-31T11:27:01.112Z,20.3
2022-08-31T11:28:01.204Z,20.3
2022-08-31T11:29:01.134Z,20.3
2022-08-31T11:30:01.185Z,20.3
2022-08-31T11:31:01.702Z,20.4
2022-08-31T11:32:01.464Z,20.4
2022-08-31T11:33:01.125Z,20.5
2022-08-31T11:34:15.583Z,20.5
2022-08-31T11:35:01.079Z,20.5
2022-08-31T11:36:06.338Z,20.6
2022-08-31T11:37:01.519Z,20.6
2022-08-31T11:38:01.517Z,20.6
2022-08-31T11:39:01.290Z,20.7
2022-08-31T11:40:01.168Z,20.8
2022-08-31T11:41:01.041Z,20.8
2022-08-31T11:42:01.128Z,20.8
2022-08-31T11:43:01.245Z,20.8
2022-08-31T11:44:01.196Z,20.9
2022-08-31T11:45:01.298Z,20.9
2022-08-31T11:46:02.100Z,21
2022-08-31T11:47:01.625Z,21
2022-08-31T11:48:01.134Z,21
2022-08-31T11:49:01.060Z,21
2022-08-31T11:50:01.077Z,21
2022-08-31T11:51:01.164Z,21
2022-08-31T11:52:01.242Z,21
2022-08-31T11:53:01.540Z,21
2022-08-31T11:54:01.193Z,21
2022-08-31T11:55:01.960Z,21
2022-08-31T11:56:01.134Z,21
2022-08-31T11:57:01.221Z,21.1
2022-08-31T11:58:00.814Z,21.1
2022-08-31T11:59:00.408Z,21.1
2022-08-31T12:00:00.012Z,21.1
2022-08-31T12:00:59.707Z,21.1
2022-08-31T12:02:01.337Z,21
2022-08-31T12:03:01.089Z,21
2022-08-31T12:04:01.056Z,21
2022-08-31T12:05:01.558Z,21
2022-08-31T12:06:01.527Z,21
2022-08-31T12:07:01.590Z,21
2022-08-31T12:08:01.334Z,21
2022-08-31T12:09:01.396Z,21.1
2022-08-31T12:10:01.290Z,21.1
2022-08-31T12:11:02.018Z,21.1
2022-08-31T12:12:01.269Z,21.2
2022-08-31T12:13:01.254Z,21.2
2022-08-31T12:14:01.516Z,21.2
2022-08-31T12:15:01.324Z,21.2
2022-08-31T12:16:01.469Z,21.2
2022-08-31T12:17:01.236Z,21.2
2022-08-31T12:18:00.742Z,21.3
2022-08-31T12:19:00.359Z,21.2
2022-08-31T12:20:01.613Z,21.1
2022-08-31T12:21:01.453Z,21.1
2022-08-31T12:22:01.616Z,21.1
2022-08-31T12:23:02.351Z,21.1
2022-08-31T12:24:01.173Z,21.2
2022-08-31T12:25:01.414Z,21.2
2022-08-31T12:26:01.168Z,21.3
2022-08-31T12:27:01.154Z,21.3
2022-08-31T12:28:01.111Z,21.3
2022-08-31T12:29:01.421Z,21.4
2022-08-31T12:30:01.033Z,21.3
2022-08-31T12:31:01.301Z,21.4
2022-08-31T12:32:01.152Z,21.4
2022-08-31T12:33:01.395Z,21.4
2022-08-31T12:34:01.995Z,21.4
2022-08-31T12:35:01.118Z,21.5
2022-08-31T12:36:01.120Z,21.5
2022-08-31T12:37:01.300Z,21.5
2022-08-31T12:38:03.522Z,21.4
2022-08-31T12:39:02.044Z,21.3
2022-08-31T12:40:02.509Z,21.3
2022-08-31T12:41:01.215Z,21.3
2022-08-31T12:42:01.105Z,21.3
2022-08-31T12:43:06.556Z,21.3
2022-08-31T12:44:03.844Z,21.3
2022-08-31T12:45:01.122Z,21.3
2022-08-31T12:46:01.433Z,21.3
2022-08-31T12:47:01.371Z,21.3
2022-08-31T12:48:10.298Z,21.2
2022-08-31T12:49:01.456Z,21.2
2022-08-31T12:50:01.356Z,21.1
2022-08-31T12:51:02.269Z,21.1
2022-08-31T12:52:01.074Z,21.1
2022-08-31T12:53:13.571Z,21.1
2022-08-31T12:54:02.165Z,21.1
2022-08-31T12:55:02.589Z,21.1
2022-08-31T12:56:00.794Z,21.1
2022-08-31T12:57:00.481Z,21.1
2022-08-31T12:58:15.375Z,21.1
2022-08-31T12:59:01.591Z,21.1
2022-08-31T13:00:02.361Z,21.1
2022-08-31T13:01:03.299Z,21.3
2022-08-31T13:02:01.330Z,21.3
2022-08-31T13:03:01.160Z,21.3
2022-08-31T13:04:01.476Z,21.3
2022-08-31T13:05:01.104Z,21.3
2022-08-31T13:06:01.149Z,21.3
2022-08-31T13:07:01.644Z,21.4
2022-08-31T13:08:01.588Z,21.4
2022-08-31T13:09:01.258Z,21.4
2022-08-31T13:10:01.235Z,21.5
2022-08-31T13:11:01.085Z,21.5
2022-08-31T13:12:01.102Z,21.5
2022-08-31T13:13:01.233Z,21.5
2022-08-31T13:14:01.317Z,21.5
2022-08-31T13:15:01.212Z,21.5
2022-08-31T13:16:01.230Z,21.5
2022-08-31T13:17:01.361Z,21.4
2022-08-31T13:18:01.552Z,21.4
2022-08-31T13:19:02.096Z,21.4
2022-08-31T13:20:01.695Z,21.4
2022-08-31T13:21:01.053Z,21.4
2022-08-31T13:22:01.073Z,21.4
2022-08-31T13:23:01.082Z,21.4
2022-08-31T13:24:01.089Z,21.4
2022-08-31T13:25:01.459Z,21.4
2022-08-31T13:26:02.095Z,21.4
2022-08-31T13:27:01.481Z,21.4